Time;durP1;ratioP1;P1;durP2;ratioP2;P2;SDS_P1;SDS_P2;PMS_P1;PMS_P2;Temp;Humidity;BMP_temperature;BMP_pressure;BME280_temperature;BME280_humidity;BME280_pressure;Samples;Min_cycle;Max_cycle;Signal;HPM_P1;HPM_P2
2023/05/15 00:00:28;;;;;;;;;;;14.40;78.30;;;;;;5043425;28;19913;-84
2023/05/15 00:02:55;;;;;;;;;;;14.40;78.70;;;;;;5043808;28;19955;-84
2023/05/15 00:05:26;;;;;;;;;;;14.30;79.20;;;;;;5047766;28;19919;-85
2023/05/15 00:07:51;;;;;;;;;;;14.30;79.00;;;;;;5050024;28;19921;-85
2023/05/15 00:10:17;;;;;;;;;;;14.30;79.10;;;;;;5048131;28;19963;-85
2023/05/15 00:12:45;;;;;;;;;;;14.20;79.60;;;;;;5046791;28;19913;-84
2023/05/15 00:15:14;;;;;;;;;;;14.20;79.90;;;;;;5052849;28;19913;-85
2023/05/15 00:17:39;;;;;;;;;;;14.30;79.60;;;;;;5045688;28;19966;-84
2023/05/15 00:20:08;;;;;;;;;;;14.20;79.60;;;;;;5043210;28;19920;-85
2023/05/15 00:22:34;;;;;;;;;;;14.20;79.70;;;;;;5049245;28;19995;-84
2023/05/15 00:25:02;;;;;;;;;;;14.30;79.00;;;;;;5042329;28;19924;-85
2023/05/15 00:27:30;;;;;;;;;;;14.30;79.30;;;;;;5048624;28;19917;-85
2023/05/15 00:29:55;;;;;;;;;;;14.30;79.20;;;;;;5049584;28;20313;-84
2023/05/15 00:32:23;;;;;;;;;;;14.40;78.30;;;;;;5039022;28;20011;-84
2023/05/15 00:34:48;;;;;;;;;;;14.40;79.00;;;;;;5047590;28;20358;-85
2023/05/15 00:37:16;;;;;;;;;;;14.30;78.80;;;;;;5050816;28;19920;-85
2023/05/15 00:42:21;;;;;;;;;;;14.50;77.70;;;;;;5004514;28;19932;-82
2023/05/15 00:44:47;;;;;;;;;;;14.50;77.30;;;;;;4999598;28;19914;-81
2023/05/15 00:47:13;;;;;;;;;;;14.50;77.80;;;;;;5005689;28;19922;-82
2023/05/15 00:49:38;;;;;;;;;;;14.40;77.60;;;;;;4992666;28;19925;-81
2023/05/15 00:52:07;;;;;;;;;;;14.50;77.60;;;;;;5022157;28;19910;-81
2023/05/15 00:54:32;;;;;;;;;;;14.30;78.20;;;;;;4996923;28;19929;-81
2023/05/15 00:56:58;;;;;;;;;;;14.20;79.10;;;;;;5010571;28;19914;-82
2023/05/15 00:59:27;;;;;;;;;;;14.20;79.10;;;;;;5000844;28;20009;-81
2023/05/15 01:01:52;;;;;;;;;;;14.20;79.70;;;;;;5001141;28;20398;-82
2023/05/15 01:04:18;;;;;;;;;;;14.20;80.00;;;;;;4998203;28;19913;-82
2023/05/15 01:06:43;;;;;;;;;;;14.10;80.40;;;;;;5003169;28;19923;-82
2023/05/15 01:09:09;;;;;;;;;;;14.10;80.20;;;;;;5008853;28;19914;-82
2023/05/15 01:11:36;;;;;;;;;;;14.10;80.40;;;;;;5000913;28;20031;-82
2023/05/15 01:14:03;;;;;;;;;;;14.10;79.80;;;;;;5001333;28;19913;-81
2023/05/15 01:16:28;;;;;;;;;;;14.00;79.40;;;;;;5008024;28;19920;-82
2023/05/15 01:18:53;;;;;;;;;;;13.80;80.40;;;;;;4995312;28;19914;-82
2023/05/15 01:21:26;;;;;;;;;;;13.70;80.20;;;;;;4995544;28;19921;-83
2023/05/15 01:24:11;;;;;;;;;;;13.60;80.20;;;;;;5013110;28;19917;-81
2023/05/15 01:26:56;;;;;;;;;;;13.60;81.80;;;;;;5012561;28;19987;-81
2023/05/15 01:29:21;;;;;;;;;;;13.60;81.60;;;;;;5023570;28;19920;-82
2023/05/15 01:31:49;;;;;;;;;;;13.60;81.60;;;;;;4998934;28;19914;-81
2023/05/15 01:34:17;;;;;;;;;;;13.60;81.60;;;;;;5006218;28;21015;-82
2023/05/15 01:36:48;;;;;;;;;;;13.60;81.50;;;;;;5002646;28;19921;-81
2023/05/15 01:39:16;;;;;;;;;;;13.60;81.00;;;;;;5009696;28;20025;-82
2023/05/15 01:41:48;;;;;;;;;;;13.50;81.30;;;;;;5001507;28;19925;-81
2023/05/15 01:44:15;;;;;;;;;;;13.50;81.40;;;;;;5005337;28;19953;-81
2023/05/15 01:46:44;;;;;;;;;;;13.30;82.30;;;;;;4998825;28;20000;-81
2023/05/15 01:49:11;;;;;;;;;;;13.30;82.70;;;;;;5001293;28;19918;-81
2023/05/15 01:51:37;;;;;;;;;;;13.30;82.90;;;;;;5005074;28;19913;-81
2023/05/15 01:54:05;;;;;;;;;;;13.30;82.30;;;;;;4997169;28;19914;-82
2023/05/15 01:56:30;;;;;;;;;;;13.30;82.30;;;;;;4993473;28;19914;-82
2023/05/15 01:58:58;;;;;;;;;;;13.20;82.70;;;;;;4995203;28;19969;-81
2023/05/15 02:01:25;;;;;;;;;;;13.30;82.70;;;;;;4999414;28;19914;-82
2023/05/15 02:03:51;;;;;;;;;;;13.30;82.50;;;;;;5013223;28;19940;-81
2023/05/15 02:06:17;;;;;;;;;;;13.20;83.00;;;;;;4998903;28;20267;-81
2023/05/15 02:08:43;;;;;;;;;;;13.30;82.80;;;;;;5004031;28;19923;-82
2023/05/15 02:11:09;;;;;;;;;;;13.30;82.70;;;;;;4998340;28;19920;-82
2023/05/15 02:13:35;;;;;;;;;;;13.20;83.20;;;;;;5018433;28;19918;-82
2023/05/15 02:16:00;;;;;;;;;;;13.30;82.60;;;;;;5004596;28;20158;-81
2023/05/15 02:18:27;;;;;;;;;;;13.20;82.80;;;;;;5033711;28;19913;-82
2023/05/15 02:20:53;;;;;;;;;;;13.10;83.00;;;;;;5003646;28;19965;-81
2023/05/15 02:23:20;;;;;;;;;;;13.00;83.70;;;;;;5008188;28;19914;-81
2023/05/15 02:26:00;;;;;;;;;;;12.90;83.70;;;;;;5009323;28;19925;-82
2023/05/15 02:28:45;;;;;;;;;;;12.80;84.10;;;;;;4991788;28;19956;-82
2023/05/15 02:31:16;;;;;;;;;;;12.80;84.10;;;;;;5009723;28;20451;-82
2023/05/15 02:34:00;;;;;;;;;;;12.90;84.00;;;;;;5003476;28;20016;-82
2023/05/15 02:36:30;;;;;;;;;;;12.80;83.90;;;;;;4998243;28;19916;-82
2023/05/15 02:38:57;;;;;;;;;;;12.80;84.20;;;;;;5010918;28;19922;-82
2023/05/15 02:41:23;;;;;;;;;;;12.80;83.90;;;;;;5006039;28;19921;-82
2023/05/15 02:43:49;;;;;;;;;;;12.90;83.80;;;;;;5012968;28;19924;-82
2023/05/15 02:46:15;;;;;;;;;;;12.80;83.70;;;;;;5004939;28;19972;-82
2023/05/15 02:48:41;;;;;;;;;;;12.90;83.60;;;;;;5028888;28;19914;-82
2023/05/15 02:51:06;;;;;;;;;;;12.90;83.90;;;;;;5029589;28;20313;-82
2023/05/15 02:53:33;;;;;;;;;;;12.90;83.90;;;;;;5034808;28;19898;-81
2023/05/15 02:55:59;;;;;;;;;;;13.00;83.90;;;;;;5010475;28;20003;-82
2023/05/15 02:58:25;;;;;;;;;;;13.00;83.30;;;;;;5008683;28;19913;-82
2023/05/15 03:00:50;;;;;;;;;;;12.90;83.90;;;;;;5007781;28;19964;-81
2023/05/15 03:03:15;;;;;;;;;;;12.90;84.00;;;;;;5014141;28;19914;-81
2023/05/15 03:05:41;;;;;;;;;;;13.00;83.70;;;;;;4997202;28;20362;-82
2023/05/15 03:08:06;;;;;;;;;;;12.80;84.10;;;;;;5015480;28;19980;-82
2023/05/15 03:10:32;;;;;;;;;;;12.90;84.40;;;;;;5010011;28;19921;-82
2023/05/15 03:12:58;;;;;;;;;;;12.90;84.40;;;;;;5009761;28;19913;-81
2023/05/15 03:15:23;;;;;;;;;;;13.00;84.20;;;;;;5013393;28;19914;-81
2023/05/15 03:17:49;;;;;;;;;;;13.00;84.40;;;;;;5004891;28;19920;-82
2023/05/15 03:20:14;;;;;;;;;;;12.90;84.50;;;;;;5010494;28;19960;-81
2023/05/15 03:22:40;;;;;;;;;;;13.00;84.80;;;;;;5006116;28;19929;-82
2023/05/15 03:25:06;;;;;;;;;;;13.10;84.60;;;;;;5008629;28;20450;-82
2023/05/15 03:27:32;;;;;;;;;;;13.10;84.60;;;;;;4998591;28;19917;-81
2023/05/15 03:29:57;;;;;;;;;;;13.10;85.10;;;;;;5001218;28;20001;-81
2023/05/15 03:32:23;;;;;;;;;;;13.10;85.30;;;;;;5000035;28;19913;-81
2023/05/15 03:34:48;;;;;;;;;;;13.20;85.40;;;;;;5010452;28;20071;-82
2023/05/15 03:37:13;;;;;;;;;;;13.30;85.50;;;;;;5004683;28;20061;-82
2023/05/15 03:39:39;;;;;;;;;;;13.30;85.40;;;;;;5002642;28;19913;-82
2023/05/15 03:42:04;;;;;;;;;;;13.30;85.70;;;;;;5011048;28;19960;-82
2023/05/15 03:44:30;;;;;;;;;;;13.50;86.10;;;;;;5011590;28;19917;-81
2023/05/15 03:46:55;;;;;;;;;;;13.50;85.90;;;;;;5005678;28;19918;-81
2023/05/15 03:49:21;;;;;;;;;;;13.40;86.20;;;;;;5023678;28;19916;-81
2023/05/15 03:51:46;;;;;;;;;;;13.50;86.40;;;;;;4997196;28;20520;-83
2023/05/15 03:54:12;;;;;;;;;;;13.50;86.50;;;;;;5015461;28;19917;-82
2023/05/15 03:56:37;;;;;;;;;;;13.60;86.50;;;;;;4998254;28;19921;-81
2023/05/15 03:59:03;;;;;;;;;;;13.60;87.10;;;;;;5008319;28;19918;-82
2023/05/15 04:01:28;;;;;;;;;;;13.50;87.30;;;;;;5017117;28;19921;-82
2023/05/15 04:03:54;;;;;;;;;;;13.60;87.30;;;;;;5003922;28;19913;-81
2023/05/15 04:06:19;;;;;;;;;;;13.70;87.50;;;;;;5008130;28;20403;-81
2023/05/15 04:08:45;;;;;;;;;;;13.80;87.10;;;;;;5002818;28;19921;-82
2023/05/15 04:11:11;;;;;;;;;;;13.80;87.20;;;;;;5003580;28;19922;-82
2023/05/15 04:13:36;;;;;;;;;;;13.70;87.40;;;;;;5002400;28;19921;-82
2023/05/15 04:16:03;;;;;;;;;;;13.70;86.80;;;;;;4997541;28;19933;-82
2023/05/15 04:18:28;;;;;;;;;;;13.70;87.00;;;;;;5000461;28;19913;-82
2023/05/15 04:20:54;;;;;;;;;;;13.80;86.90;;;;;;4993406;28;20334;-81
2023/05/15 04:23:19;;;;;;;;;;;13.80;87.10;;;;;;5009610;28;19914;-82
2023/05/15 04:25:45;;;;;;;;;;;13.90;87.00;;;;;;5019032;28;19914;-82
2023/05/15 04:28:14;;;;;;;;;;;14.00;86.60;;;;;;5024923;28;19917;-81
2023/05/15 04:30:40;;;;;;;;;;;14.00;86.40;;;;;;5001482;28;19921;-82
2023/05/15 04:33:05;;;;;;;;;;;14.00;86.40;;;;;;5011490;28;19918;-82
2023/05/15 04:35:31;;;;;;;;;;;14.10;86.30;;;;;;5020856;28;19940;-82
2023/05/15 04:37:56;;;;;;;;;;;14.10;86.30;;;;;;5032977;28;19933;-82
2023/05/15 04:40:22;;;;;;;;;;;14.10;85.90;;;;;;4997191;28;19918;-82
2023/05/15 04:42:47;;;;;;;;;;;14.10;85.80;;;;;;5012349;28;19936;-82
2023/05/15 04:45:13;;;;;;;;;;;14.10;85.80;;;;;;4999730;28;19949;-82
2023/05/15 04:47:39;;;;;;;;;;;14.10;85.60;;;;;;5013438;28;19980;-82
2023/05/15 04:50:05;;;;;;;;;;;14.00;85.20;;;;;;5001908;28;19920;-82
2023/05/15 04:52:31;;;;;;;;;;;14.00;85.00;;;;;;5021552;28;20291;-82
2023/05/15 04:54:56;;;;;;;;;;;13.90;85.10;;;;;;4999572;28;19917;-82
2023/05/15 04:57:22;;;;;;;;;;;14.00;84.90;;;;;;5003235;28;19914;-82
2023/05/15 04:59:48;;;;;;;;;;;13.90;85.00;;;;;;4991366;28;19961;-82
2023/05/15 05:02:13;;;;;;;;;;;14.00;85.30;;;;;;5017289;28;20388;-82
2023/05/15 05:04:41;;;;;;;;;;;13.90;85.20;;;;;;4996589;28;20383;-81
2023/05/15 05:07:07;;;;;;;;;;;14.00;85.10;;;;;;5004284;28;19941;-83
2023/05/15 05:09:33;;;;;;;;;;;14.00;84.90;;;;;;5009087;28;19913;-82
2023/05/15 05:11:59;;;;;;;;;;;14.10;84.30;;;;;;5015180;28;19917;-82
2023/05/15 05:14:25;;;;;;;;;;;14.10;84.10;;;;;;5002045;28;19996;-82
2023/05/15 05:16:50;;;;;;;;;;;14.20;83.40;;;;;;5023661;28;19917;-83
2023/05/15 05:19:16;;;;;;;;;;;14.10;83.10;;;;;;4998409;28;20008;-84
2023/05/15 05:21:41;;;;;;;;;;;14.10;83.70;;;;;;5004427;28;19914;-84
2023/05/15 05:24:06;;;;;;;;;;;14.10;83.90;;;;;;4992582;28;19925;-84
2023/05/15 05:26:34;;;;;;;;;;;14.10;83.60;;;;;;5003040;28;19925;-84
2023/05/15 05:29:00;;;;;;;;;;;14.20;83.60;;;;;;5010029;28;19914;-84
2023/05/15 05:31:25;;;;;;;;;;;14.20;83.50;;;;;;4996756;28;19920;-83
2023/05/15 05:33:51;;;;;;;;;;;14.30;83.00;;;;;;4988163;28;19988;-82
2023/05/15 05:36:17;;;;;;;;;;;14.20;83.10;;;;;;4995089;28;20342;-82
2023/05/15 05:38:42;;;;;;;;;;;14.30;82.70;;;;;;5000307;28;19914;-89
2023/05/15 05:41:08;;;;;;;;;;;14.10;82.80;;;;;;4990197;28;20639;-82
2023/05/15 05:43:33;;;;;;;;;;;14.10;83.30;;;;;;4992745;28;19937;-83
2023/05/15 05:46:02;;;;;;;;;;;14.10;83.40;;;;;;4994700;28;19917;-89
2023/05/15 05:48:27;;;;;;;;;;;14.10;82.90;;;;;;5018253;28;19920;-84
2023/05/15 05:50:53;;;;;;;;;;;14.10;83.00;;;;;;5001512;28;20526;-84
2023/05/15 05:53:18;;;;;;;;;;;14.00;83.20;;;;;;5003074;28;19976;-83
2023/05/15 05:55:44;;;;;;;;;;;14.00;83.00;;;;;;5010475;28;19909;-83
2023/05/15 05:58:09;;;;;;;;;;;13.90;83.30;;;;;;4998478;28;19913;-83
2023/05/15 06:00:38;;;;;;;;;;;13.90;83.40;;;;;;4998767;28;19913;-83
2023/05/15 06:03:03;;;;;;;;;;;13.80;83.60;;;;;;5012904;28;19916;-83
2023/05/15 06:05:29;;;;;;;;;;;13.90;83.80;;;;;;5005032;28;19910;-83
2023/05/15 06:07:55;;;;;;;;;;;14.00;83.10;;;;;;5019689;28;19977;-83
2023/05/15 06:10:20;;;;;;;;;;;14.00;83.10;;;;;;5000487;28;19913;-83
2023/05/15 06:12:46;;;;;;;;;;;14.00;82.90;;;;;;5006304;28;19914;-84
2023/05/15 06:15:12;;;;;;;;;;;14.00;82.60;;;;;;5009319;28;19917;-83
2023/05/15 06:17:37;;;;;;;;;;;13.90;82.90;;;;;;5013926;28;19916;-84
2023/05/15 06:20:10;;;;;;;;;;;14.00;83.30;;;;;;5019362;28;19924;-85
2023/05/15 06:22:36;;;;;;;;;;;14.00;83.40;;;;;;5018672;28;19916;-83
2023/05/15 06:25:04;;;;;;;;;;;14.10;83.10;;;;;;5017382;28;19910;-83
2023/05/15 06:27:30;;;;;;;;;;;14.10;83.00;;;;;;5005826;28;19914;-83
2023/05/15 06:29:55;;;;;;;;;;;14.10;83.00;;;;;;4989995;28;20438;-84
2023/05/15 06:32:20;;;;;;;;;;;14.30;82.50;;;;;;5005328;28;20009;-87
2023/05/15 06:34:46;;;;;;;;;;;14.40;81.70;;;;;;5013037;28;20558;-85
2023/05/15 06:37:12;;;;;;;;;;;14.40;82.10;;;;;;5016473;28;20371;-86
2023/05/15 06:39:37;;;;;;;;;;;14.50;82.10;;;;;;5018501;28;20368;-86
2023/05/15 06:42:03;;;;;;;;;;;14.50;81.60;;;;;;5029442;22;20442;-84
2023/05/15 06:44:31;;;;;;;;;;;14.60;80.90;;;;;;5013173;28;20295;-84
2023/05/15 06:46:57;;;;;;;;;;;14.50;81.60;;;;;;5015441;28;19917;-84
2023/05/15 06:49:23;;;;;;;;;;;14.40;81.80;;;;;;5013884;28;19920;-86
2023/05/15 06:51:48;;;;;;;;;;;14.40;82.00;;;;;;5011557;28;19913;-83
2023/05/15 06:54:14;;;;;;;;;;;14.20;82.50;;;;;;5024500;28;20294;-83
2023/05/15 06:56:39;;;;;;;;;;;14.40;82.00;;;;;;5012715;28;19971;-83
2023/05/15 06:59:05;;;;;;;;;;;14.50;82.20;;;;;;5013296;28;19968;-83
2023/05/15 07:01:30;;;;;;;;;;;14.40;82.10;;;;;;5012847;28;20024;-83
2023/05/15 07:03:56;;;;;;;;;;;14.50;82.00;;;;;;5013252;28;19967;-83
2023/05/15 07:06:21;;;;;;;;;;;14.60;81.50;;;;;;5013406;28;19951;-84
2023/05/15 07:08:47;;;;;;;;;;;14.60;81.40;;;;;;5021102;28;19918;-84
2023/05/15 07:11:13;;;;;;;;;;;14.70;81.10;;;;;;5037044;28;19909;-84
2023/05/15 07:13:38;;;;;;;;;;;14.80;81.40;;;;;;5037012;28;19913;-84
2023/05/15 07:16:04;;;;;;;;;;;14.90;81.20;;;;;;5037815;28;19929;-84
2023/05/15 07:18:29;;;;;;;;;;;14.90;80.90;;;;;;5037434;28;20367;-84
2023/05/15 07:20:54;;;;;;;;;;;14.90;80.40;;;;;;5036293;28;19909;-84
2023/05/15 07:23:20;;;;;;;;;;;15.00;80.10;;;;;;5027667;28;20394;-83
2023/05/15 07:25:45;;;;;;;;;;;14.90;80.10;;;;;;5031169;28;19995;-84
2023/05/15 07:28:11;;;;;;;;;;;14.90;80.10;;;;;;5021992;28;19921;-84
2023/05/15 07:30:36;;;;;;;;;;;14.80;80.00;;;;;;5015722;28;19917;-84
2023/05/15 07:33:02;;;;;;;;;;;14.80;80.60;;;;;;5017141;28;19955;-84
2023/05/15 07:35:27;;;;;;;;;;;14.90;80.20;;;;;;5016123;28;19909;-84
2023/05/15 07:37:53;;;;;;;;;;;15.00;79.90;;;;;;5015196;28;20263;-84
2023/05/15 07:40:18;;;;;;;;;;;15.00;79.50;;;;;;5018958;28;19913;-84
2023/05/15 07:42:44;;;;;;;;;;;15.00;79.70;;;;;;5036268;28;19921;-84
2023/05/15 07:45:10;;;;;;;;;;;14.90;79.60;;;;;;5036529;28;19996;-83
2023/05/15 07:47:35;;;;;;;;;;;14.80;79.60;;;;;;5036360;28;19913;-84
2023/05/15 07:50:01;;;;;;;;;;;14.60;80.20;;;;;;5023631;28;19929;-83
2023/05/15 07:52:27;;;;;;;;;;;14.70;80.10;;;;;;5032862;28;19923;-83
2023/05/15 07:54:52;;;;;;;;;;;14.70;79.60;;;;;;5019699;28;20447;-84
2023/05/15 07:57:17;;;;;;;;;;;14.80;79.90;;;;;;5028689;28;19909;-82
2023/05/15 07:59:43;;;;;;;;;;;14.80;79.80;;;;;;5021748;28;19992;-83
2023/05/15 08:02:08;;;;;;;;;;;14.80;79.20;;;;;;5024038;28;20294;-83
2023/05/15 08:04:34;;;;;;;;;;;14.70;79.40;;;;;;5016441;28;20075;-82
2023/05/15 08:06:59;;;;;;;;;;;14.80;80.00;;;;;;5017756;28;19942;-83
2023/05/15 08:09:25;;;;;;;;;;;14.90;78.90;;;;;;5017691;28;19917;-83
2023/05/15 08:11:50;;;;;;;;;;;15.00;78.60;;;;;;5024072;28;19953;-83
2023/05/15 08:14:15;;;;;;;;;;;15.30;78.10;;;;;;5023707;28;20084;-81
2023/05/15 08:16:41;;;;;;;;;;;15.40;77.80;;;;;;5032830;28;19948;-82
2023/05/15 08:19:06;;;;;;;;;;;15.50;77.60;;;;;;5044191;28;20249;-83
2023/05/15 08:21:32;;;;;;;;;;;15.40;77.70;;;;;;5017026;28;20252;-83
2023/05/15 08:23:58;;;;;;;;;;;15.60;76.30;;;;;;5016150;28;19909;-83
2023/05/15 08:26:23;;;;;;;;;;;15.60;76.10;;;;;;5013643;28;19914;-82
2023/05/15 08:28:49;;;;;;;;;;;15.60;76.00;;;;;;5016866;28;20371;-83
2023/05/15 08:31:15;;;;;;;;;;;15.60;76.60;;;;;;5009069;28;19932;-83
2023/05/15 08:33:40;;;;;;;;;;;15.50;77.10;;;;;;5003368;28;19921;-83
2023/05/15 08:36:06;;;;;;;;;;;15.60;76.90;;;;;;5010923;28;19977;-83
2023/05/15 08:38:31;;;;;;;;;;;15.70;76.60;;;;;;5004715;28;19929;-83
2023/05/15 08:40:57;;;;;;;;;;;15.80;76.60;;;;;;5000592;28;19914;-83
2023/05/15 08:43:24;;;;;;;;;;;15.80;75.60;;;;;;5008089;28;20371;-84
2023/05/15 08:45:52;;;;;;;;;;;15.80;75.90;;;;;;5007180;28;19922;-83
2023/05/15 08:48:20;;;;;;;;;;;15.80;75.70;;;;;;5011867;28;19909;-82
2023/05/15 08:50:46;;;;;;;;;;;15.90;75.30;;;;;;5005383;28;19925;-83
2023/05/15 08:53:12;;;;;;;;;;;16.00;75.50;;;;;;5009314;28;19960;-82
2023/05/15 08:55:39;;;;;;;;;;;16.10;75.30;;;;;;5005027;28;21247;-83
2023/05/15 08:58:05;;;;;;;;;;;16.10;75.20;;;;;;5005356;28;19979;-82
2023/05/15 09:00:30;;;;;;;;;;;16.10;74.30;;;;;;5003656;28;19921;-82
2023/05/15 09:02:58;;;;;;;;;;;16.20;74.40;;;;;;5010071;28;19913;-81
2023/05/15 09:05:23;;;;;;;;;;;16.30;74.10;;;;;;5008241;28;19921;-85
2023/05/15 09:07:49;;;;;;;;;;;16.60;74.10;;;;;;5007891;28;19917;-82
2023/05/15 09:10:15;;;;;;;;;;;16.70;72.40;;;;;;5009291;28;19922;-83
2023/05/15 09:12:42;;;;;;;;;;;16.90;71.10;;;;;;5010760;28;20055;-83
2023/05/15 09:15:08;;;;;;;;;;;16.90;70.80;;;;;;5017716;28;19914;-83
2023/05/15 09:17:34;;;;;;;;;;;16.80;70.30;;;;;;5013558;28;19917;-83
2023/05/15 09:20:00;;;;;;;;;;;16.80;70.30;;;;;;5015964;28;20062;-84
2023/05/15 09:22:26;;;;;;;;;;;16.90;69.80;;;;;;5013763;28;19921;-83
2023/05/15 09:24:51;;;;;;;;;;;17.00;68.40;;;;;;5012003;28;19917;-84
2023/05/15 09:27:18;;;;;;;;;;;17.10;67.50;;;;;;5017835;28;20020;-83
2023/05/15 09:29:44;;;;;;;;;;;17.10;67.80;;;;;;5005463;28;19963;-85
2023/05/15 09:32:11;;;;;;;;;;;17.20;67.30;;;;;;5012315;28;20328;-84
2023/05/15 09:34:37;;;;;;;;;;;17.20;68.20;;;;;;5014596;28;20652;-83
2023/05/15 09:37:05;;;;;;;;;;;17.40;68.30;;;;;;5008572;28;19939;-84
2023/05/15 09:39:30;;;;;;;;;;;17.50;66.00;;;;;;5010486;28;19937;-85
2023/05/15 09:42:04;;;;;;;;;;;17.50;66.70;;;;;;5011236;28;19918;-82
2023/05/15 09:44:30;;;;;;;;;;;17.50;66.20;;;;;;5006571;28;20351;-82
2023/05/15 09:46:56;;;;;;;;;;;17.30;65.80;;;;;;5022029;28;19948;-83
2023/05/15 09:49:21;;;;;;;;;;;17.30;66.60;;;;;;5023838;28;19924;-84
2023/05/15 09:51:47;;;;;;;;;;;17.40;66.50;;;;;;5016669;28;20023;-85
2023/05/15 09:54:14;;;;;;;;;;;17.50;66.10;;;;;;5014965;28;19914;-85
2023/05/15 09:56:40;;;;;;;;;;;17.40;66.40;;;;;;5011197;28;20020;-84
2023/05/15 09:59:10;;;;;;;;;;;17.30;67.30;;;;;;5010971;28;20003;-84
2023/05/15 10:01:36;;;;;;;;;;;17.20;68.10;;;;;;5011179;28;19914;-84
2023/05/15 10:04:02;;;;;;;;;;;17.30;66.40;;;;;;5011825;28;20322;-84
2023/05/15 10:06:34;;;;;;;;;;;17.20;66.60;;;;;;5010261;28;19975;-85
2023/05/15 10:09:00;;;;;;;;;;;17.30;65.90;;;;;;5010664;28;19921;-84
2023/05/15 10:11:26;;;;;;;;;;;17.50;66.10;;;;;;5010035;28;19980;-84
2023/05/15 10:13:52;;;;;;;;;;;17.30;66.20;;;;;;5011613;28;19925;-84
2023/05/15 10:16:19;;;;;;;;;;;17.30;66.90;;;;;;5015000;28;19922;-84
2023/05/15 10:18:44;;;;;;;;;;;17.30;67.80;;;;;;5014720;28;19913;-83
2023/05/15 10:21:11;;;;;;;;;;;17.50;67.80;;;;;;5019693;28;20360;-84
2023/05/15 10:23:37;;;;;;;;;;;17.60;67.50;;;;;;5019735;28;19913;-84
2023/05/15 10:26:05;;;;;;;;;;;17.80;66.80;;;;;;5020893;28;19913;-84
2023/05/15 10:28:32;;;;;;;;;;;17.80;66.70;;;;;;5018942;28;20371;-83
2023/05/15 10:30:59;;;;;;;;;;;18.10;65.10;;;;;;5026373;28;19909;-83
2023/05/15 10:33:25;;;;;;;;;;;18.10;65.40;;;;;;5021819;28;19909;-83
2023/05/15 10:35:51;;;;;;;;;;;18.10;65.60;;;;;;5021062;28;19925;-83
2023/05/15 10:38:18;;;;;;;;;;;18.20;62.70;;;;;;5021414;28;19914;-83
2023/05/15 10:40:44;;;;;;;;;;;18.10;62.10;;;;;;5020084;28;19921;-83
2023/05/15 10:43:10;;;;;;;;;;;18.20;62.10;;;;;;5021538;28;19913;-83
2023/05/15 10:45:36;;;;;;;;;;;18.10;62.70;;;;;;5028192;28;19917;-84
2023/05/15 10:48:04;;;;;;;;;;;18.10;63.50;;;;;;5018443;28;19913;-84
2023/05/15 10:50:29;;;;;;;;;;;18.10;63.40;;;;;;5021137;28;19913;-83
2023/05/15 10:52:55;;;;;;;;;;;18.10;64.00;;;;;;5020403;28;19971;-84
2023/05/15 10:55:21;;;;;;;;;;;18.40;61.50;;;;;;5022999;28;19925;-84
2023/05/15 10:57:46;;;;;;;;;;;18.50;61.30;;;;;;5021328;28;19909;-84
2023/05/15 11:00:21;;;;;;;;;;;18.40;59.60;;;;;;5027934;28;20355;-83
2023/05/15 11:02:47;;;;;;;;;;;18.30;59.70;;;;;;5043304;28;19925;-84
2023/05/15 11:05:13;;;;;;;;;;;18.30;60.80;;;;;;5029014;28;19909;-83
2023/05/15 11:07:38;;;;;;;;;;;18.40;60.70;;;;;;5020513;28;20008;-83
2023/05/15 11:10:23;;;;;;;;;;;18.50;60.40;;;;;;5021963;28;19924;-84
2023/05/15 11:12:58;;;;;;;;;;;18.60;60.30;;;;;;5025053;28;19913;-83
2023/05/15 11:15:24;;;;;;;;;;;18.60;60.20;;;;;;5022663;28;19916;-85
2023/05/15 11:18:02;;;;;;;;;;;18.70;60.40;;;;;;5014138;28;20427;-85
2023/05/15 11:20:32;;;;;;;;;;;18.60;61.20;;;;;;5013994;28;19909;-84
2023/05/15 11:22:58;;;;;;;;;;;18.70;59.40;;;;;;5015263;28;19937;-84
2023/05/15 11:25:28;;;;;;;;;;;18.80;59.40;;;;;;5008374;28;20004;-84
2023/05/15 11:27:53;;;;;;;;;;;19.00;58.70;;;;;;5019915;28;19939;-84
2023/05/15 11:30:21;;;;;;;;;;;19.00;59.00;;;;;;5035755;28;19976;-83
2023/05/15 11:32:46;;;;;;;;;;;19.10;57.00;;;;;;5036416;28;19913;-84
2023/05/15 11:35:13;;;;;;;;;;;19.20;55.80;;;;;;5036560;28;19909;-84
2023/05/15 11:37:42;;;;;;;;;;;19.20;55.20;;;;;;5036276;28;20000;-84
2023/05/15 11:40:11;;;;;;;;;;;19.20;53.40;;;;;;5034080;28;19932;-84
2023/05/15 11:42:37;;;;;;;;;;;19.10;52.90;;;;;;5033913;28;19924;-83
2023/05/15 11:45:03;;;;;;;;;;;19.10;52.40;;;;;;5020183;28;19913;-84
2023/05/15 11:47:30;;;;;;;;;;;19.10;53.20;;;;;;5024484;28;19913;-84
2023/05/15 11:49:56;;;;;;;;;;;19.20;51.30;;;;;;5013982;28;19909;-83
2023/05/15 11:52:21;;;;;;;;;;;19.00;52.20;;;;;;5015008;28;20283;-84
2023/05/15 11:54:47;;;;;;;;;;;19.00;52.30;;;;;;5014543;28;19959;-84
2023/05/15 11:57:12;;;;;;;;;;;19.10;51.70;;;;;;5015175;28;19916;-85
2023/05/15 11:59:37;;;;;;;;;;;19.00;53.20;;;;;;5024807;28;19901;-84
2023/05/15 12:02:04;;;;;;;;;;;19.10;51.40;;;;;;5041236;28;19939;-84
2023/05/15 12:04:32;;;;;;;;;;;19.10;52.90;;;;;;5045749;28;19913;-84
2023/05/15 12:07:00;;;;;;;;;;;19.10;50.90;;;;;;5038101;28;19920;-84
2023/05/15 12:09:27;;;;;;;;;;;19.20;50.50;;;;;;5040329;28;19932;-85
2023/05/15 12:11:54;;;;;;;;;;;19.20;52.10;;;;;;5040171;28;19948;-83
2023/05/15 12:14:29;;;;;;;;;;;19.10;54.10;;;;;;5035599;28;19920;-84
2023/05/15 12:17:04;;;;;;;;;;;19.30;53.00;;;;;;5023870;28;19967;-83
2023/05/15 12:19:30;;;;;;;;;;;19.20;51.70;;;;;;5012946;28;19918;-83
2023/05/15 12:21:55;;;;;;;;;;;19.20;53.00;;;;;;5010748;28;19917;-83
2023/05/15 12:24:21;;;;;;;;;;;19.20;53.60;;;;;;5015318;28;20383;-84
2023/05/15 12:26:47;;;;;;;;;;;19.50;53.40;;;;;;5009231;28;20286;-81
2023/05/15 12:29:12;;;;;;;;;;;19.60;52.80;;;;;;5025715;28;19918;-82
2023/05/15 12:31:38;;;;;;;;;;;19.60;51.40;;;;;;5013219;28;19968;-83
2023/05/15 12:34:04;;;;;;;;;;;19.60;50.20;;;;;;5012185;28;20354;-81
2023/05/15 12:36:30;;;;;;;;;;;19.70;48.90;;;;;;5013187;28;20302;-80
2023/05/15 12:38:56;;;;;;;;;;;19.80;49.10;;;;;;5012112;28;19924;-82
2023/05/15 12:41:25;;;;;;;;;;;20.00;49.30;;;;;;5034639;22;19926;-85
2023/05/15 12:43:51;;;;;;;;;;;19.90;48.40;;;;;;4995274;28;19918;-83
2023/05/15 12:46:20;;;;;;;;;;;20.00;47.40;;;;;;4989510;28;19922;-85
2023/05/15 12:48:46;;;;;;;;;;;20.10;46.20;;;;;;4989695;28;19921;-86
2023/05/15 12:51:15;;;;;;;;;;;20.00;47.20;;;;;;5001801;28;19910;-84
2023/05/15 12:53:41;;;;;;;;;;;20.00;45.60;;;;;;4991149;28;19982;-87
2023/05/15 12:56:07;;;;;;;;;;;20.10;43.80;;;;;;4996457;28;19957;-89
2023/05/15 12:58:53;;;;;;;;;;;20.00;46.00;;;;;;4993695;28;19945;-89
2023/05/15 13:01:42;;;;;;;;;;;;;;;;;;;;;
2023/05/15 13:04:10;;;;;;;;;;;20.30;46.00;;;;;;4990485;28;19918;-89
2023/05/15 13:06:53;;;;;;;;;;;20.40;45.80;;;;;;4994341;28;20059;-87
2023/05/15 13:09:28;;;;;;;;;;;20.50;45.40;;;;;;4991239;28;19918;-86
2023/05/15 13:12:11;;;;;;;;;;;20.40;44.70;;;;;;4981892;28;20279;-90
2023/05/15 13:14:50;;;;;;;;;;;20.30;45.90;;;;;;4991851;28;20321;-91
2023/05/15 13:17:15;;;;;;;;;;;20.50;44.90;;;;;;4989035;28;19932;-85
2023/05/15 13:19:46;;;;;;;;;;;20.70;44.30;;;;;;4991714;28;19918;-85
2023/05/15 13:22:12;;;;;;;;;;;20.90;43.60;;;;;;4989652;28;19914;-87
2023/05/15 13:24:37;;;;;;;;;;;20.80;43.80;;;;;;4999250;28;20409;-88
2023/05/15 13:27:03;;;;;;;;;;;20.70;43.00;;;;;;4991114;28;19984;-86
2023/05/15 13:29:28;;;;;;;;;;;20.80;43.10;;;;;;4996965;28;20296;-87
2023/05/15 13:31:54;;;;;;;;;;;21.00;42.80;;;;;;4990608;28;20623;-86
2023/05/15 13:34:20;;;;;;;;;;;21.10;43.10;;;;;;4992801;28;20051;-84
2023/05/15 13:36:45;;;;;;;;;;;21.20;43.90;;;;;;4991605;28;19976;-85
2023/05/15 13:39:10;;;;;;;;;;;21.20;43.40;;;;;;4995217;28;19933;-84
2023/05/15 13:41:36;;;;;;;;;;;21.20;43.10;;;;;;4991986;28;20633;-83
2023/05/15 13:44:02;;;;;;;;;;;21.30;43.20;;;;;;4993859;28;19918;-86
2023/05/15 13:46:27;;;;;;;;;;;21.30;45.80;;;;;;4994070;28;19953;-88
2023/05/15 13:48:53;;;;;;;;;;;21.10;46.30;;;;;;5006832;28;19972;-86
2023/05/15 13:51:18;;;;;;;;;;;20.80;46.80;;;;;;4999622;28;19922;-87
2023/05/15 13:53:44;;;;;;;;;;;20.60;46.70;;;;;;4997037;28;20000;-85
2023/05/15 13:56:10;;;;;;;;;;;20.30;44.90;;;;;;4995931;28;19918;-85
2023/05/15 13:58:36;;;;;;;;;;;20.30;45.80;;;;;;5000063;28;19949;-84
2023/05/15 14:01:03;;;;;;;;;;;20.20;46.90;;;;;;4999561;28;19917;-84
2023/05/15 14:03:29;;;;;;;;;;;20.30;47.80;;;;;;4999092;28;19918;-83
2023/05/15 14:05:55;;;;;;;;;;;20.40;49.30;;;;;;5000040;28;19918;-80
2023/05/15 14:08:20;;;;;;;;;;;20.60;48.30;;;;;;5012469;28;19914;-83
2023/05/15 14:10:46;;;;;;;;;;;20.80;47.90;;;;;;5001874;28;19983;-83
2023/05/15 14:13:11;;;;;;;;;;;20.70;46.70;;;;;;4998814;28;19918;-84
2023/05/15 14:15:36;;;;;;;;;;;20.60;46.70;;;;;;4996477;28;19917;-85
2023/05/15 14:18:02;;;;;;;;;;;20.50;47.60;;;;;;5005668;28;19916;-85